Time;durP1;ratioP1;P1;durP2;ratioP2;P2;SDS_P1;SDS_P2;PMS_P1;PMS_P2;Temp;Humidity;BMP_temperature;BMP_pressure;BME280_temperature;BME280_humidity;BME280_pressure;Samples;Min_cycle;Max_cycle;Signal;HPM_P1;HPM_P2
2020/12/02 00:02:02;;;;;;;17.38;13.32;;;10.90;99.90;;;11.02;74.06;102056.38;5074909;28;19973;-74
2020/12/02 00:04:30;;;;;;;16.67;13.43;;;10.90;99.90;;;10.98;73.92;102049.25;5074640;28;20037;-74
2020/12/02 00:07:02;;;;;;;16.52;13.30;;;10.90;99.90;;;11.03;73.67;102050.22;5074573;28;20473;-74
2020/12/02 00:09:29;;;;;;;20.90;14.02;;;10.80;99.90;;;10.97;73.78;102042.19;5074603;28;20409;-74
2020/12/02 00:11:56;;;;;;;19.23;14.23;;;10.90;99.90;;;10.99;73.62;102053.69;5074564;28;20079;-75
2020/12/02 00:14:29;;;;;;;18.65;14.10;;;10.80;99.90;;;10.92;73.56;102043.00;5074317;28;20490;-75
2020/12/02 00:16:57;;;;;;;;;;;10.90;99.90;;;10.97;73.27;102046.59;5074604;28;20032;-75
2020/12/02 00:19:27;;;;;;;17.27;13.27;;;10.90;99.90;;;10.94;73.31;102047.44;5074005;28;20366;-75
2020/12/02 00:22:07;;;;;;;18.42;13.85;;;10.80;99.90;;;10.96;73.37;102044.81;5074450;28;20052;-75
2020/12/02 00:24:34;;;;;;;18.02;13.00;;;10.80;99.90;;;10.89;73.56;102041.22;5073044;28;20440;-75
2020/12/02 00:27:06;;;;;;;20.65;13.73;;;10.70;99.90;;;10.92;73.59;102050.97;5073964;28;20072;-74
2020/12/02 00:29:34;;;;;;;17.38;13.30;;;10.80;99.90;;;10.97;73.43;102054.53;5073957;28;20485;-74
2020/12/02 00:32:02;;;;;;;16.08;13.20;;;10.80;99.90;;;10.92;73.56;102049.16;5074128;28;20072;-74
2020/12/02 00:34:29;;;;;;;16.27;12.02;;;10.80;99.90;;;10.89;73.50;102046.50;5073748;28;20502;-75
2020/12/02 00:36:56;;;;;;;15.52;13.32;;;10.70;99.90;;;10.88;73.59;102047.34;5073968;28;20144;-75
2020/12/02 00:39:25;;;;;;;21.08;14.05;;;10.70;99.90;;;10.64;73.58;101995.00;5073616;28;20040;-75
2020/12/02 00:41:52;;;;;;;18.95;13.48;;;10.70;99.90;;;10.85;73.58;102052.63;5074065;28;20090;-75
2020/12/02 00:44:23;;;;;;;18.90;12.57;;;10.70;99.90;;;10.79;73.68;102028.72;5089377;28;20135;-75
2020/12/02 00:46:50;;;;;;;19.27;13.95;;;10.70;99.90;;;10.87;73.57;102051.78;5073482;28;20040;-75
2020/12/02 00:49:18;;;;;;;17.73;13.65;;;10.70;99.90;;;10.89;73.67;102049.16;5073733;28;20044;-75
2020/12/02 00:51:46;;;;;;;16.33;13.65;;;10.70;99.90;;;10.89;73.68;102055.34;5073697;28;20080;-75
2020/12/02 00:54:18;;;;;;;17.33;12.55;;;10.70;99.90;;;10.88;73.75;102058.84;5073602;28;20397;-75
2020/12/02 00:56:48;;;;;;;15.75;12.35;;;10.70;99.90;;;10.90;73.91;102056.19;5089037;28;20493;-74
2020/12/02 00:59:24;;;;;;;16.63;13.77;;;10.70;99.90;;;10.87;73.91;102054.44;5073328;28;20063;-75
2020/12/02 01:02:02;;;;;;;16.40;13.60;;;10.70;99.90;;;10.91;73.58;102052.72;5073165;28;20049;-75
2020/12/02 01:04:30;;;;;;;18.17;13.35;;;10.70;99.90;;;10.86;73.63;102042.03;5073379;28;20055;-75
2020/12/02 01:06:58;;;;;;;17.92;13.65;;;10.70;99.90;;;10.72;73.44;102033.03;5073094;28;20156;-75
2020/12/02 01:09:29;;;;;;;16.25;13.82;;;10.70;99.90;;;10.84;73.52;102035.84;5073280;28;20040;-74
2020/12/02 01:12:00;;;;;;;15.77;13.88;;;10.70;99.90;;;10.71;73.34;102031.25;5072950;28;20638;-76
2020/12/02 01:14:30;;;;;;;15.75;14.05;;;10.60;99.90;;;10.68;73.01;102038.28;5073142;28;20125;-74
2020/12/02 01:17:01;;;;;;;17.92;14.48;;;10.60;99.90;;;10.63;73.23;102032.00;5072850;28;20048;-74
2020/12/02 01:19:38;;;;;;;15.57;13.70;;;10.60;99.90;;;10.66;73.30;102037.38;5073308;28;20055;-75
2020/12/02 01:22:15;;;;;;;17.75;14.10;;;10.50;99.90;;;10.65;73.43;102043.50;5071809;28;20498;-74
2020/12/02 01:24:50;;;;;;;15.70;12.48;;;10.50;99.90;;;10.64;73.22;102049.69;5072907;28;20391;-74
2020/12/02 01:27:30;;;;;;;17.75;13.90;;;10.50;99.90;;;10.65;73.15;102041.75;5072845;28;20047;-74
2020/12/02 01:29:59;;;;;;;16.42;14.30;;;10.50;99.90;;;10.68;72.82;102040.91;5072617;28;20044;-75
2020/12/02 01:32:27;;;;;;;17.98;14.77;;;10.50;99.90;;;10.43;72.82;102005.28;5073152;28;20140;-74
2020/12/02 01:34:56;;;;;;;16.98;15.10;;;10.50;99.90;;;10.71;72.55;102044.50;5072829;28;20048;-74
2020/12/02 01:37:32;;;;;;;18.83;14.48;;;10.60;99.90;;;10.62;72.41;102038.19;5072754;28;20079;-75
2020/12/02 01:40:17;;;;;;;20.88;14.50;;;10.60;99.90;;;10.49;72.67;102025.66;5072842;28;20049;-75
2020/12/02 01:42:55;;;;;;;18.10;13.88;;;10.50;99.90;;;10.44;72.73;102022.03;5072407;28;20495;-75
2020/12/02 01:45:26;;;;;;;17.17;13.55;;;10.40;99.90;;;10.58;72.58;102046.94;5071399;28;20082;-75
2020/12/02 01:48:20;;;;;;;17.08;14.60;;;10.50;99.90;;;10.00;72.38;101949.97;5072701;28;20436;-75
2020/12/02 01:50:52;;;;;;;18.50;14.48;;;10.40;99.90;;;10.54;72.61;102039.81;5066537;28;20048;-74
2020/12/02 01:53:28;;;;;;;20.10;15.65;;;10.40;99.90;;;10.48;72.48;102037.09;5088161;28;20092;-74
2020/12/02 01:56:00;;;;;;;17.00;14.88;;;10.40;99.90;;;10.47;72.43;102043.25;5072637;28;20052;-74
2020/12/02 01:58:44;;;;;;;18.40;15.73;;;10.30;99.90;;;10.54;72.60;102042.47;5071741;28;20094;-74
2020/12/02 02:01:21;;;;;;;18.33;14.93;;;10.40;99.90;;;10.41;72.70;102011.44;5072254;28;20051;-74
2020/12/02 02:03:51;;;;;;;18.40;15.60;;;10.40;99.90;;;10.53;72.66;102053.94;5072397;28;20424;-74
2020/12/02 02:06:28;;;;;;;21.60;15.37;;;10.40;99.90;;;10.52;72.66;102023.03;5072202;28;20082;-74
2020/12/02 02:08:57;;;;;;;20.27;15.52;;;10.40;99.90;;;10.46;72.65;102042.38;5072201;28;20053;-74
2020/12/02 02:11:25;;;;;;;17.52;15.60;;;10.40;99.90;;;10.47;72.65;102032.69;5072362;28;20052;-75
2020/12/02 02:14:20;;;;;;;17.95;13.95;;;10.30;99.90;;;10.50;72.75;102038.00;5071762;28;20049;-74
2020/12/02 02:16:49;;;;;;;16.52;14.60;;;10.40;99.90;;;10.36;72.69;102008.72;5072229;28;20086;-74
2020/12/02 02:19:23;;;;;;;16.38;14.65;;;10.40;99.90;;;10.49;72.85;102029.16;5070929;28;20072;-75
2020/12/02 02:21:55;;;;;;;16.55;14.80;;;10.30;99.90;;;10.25;72.74;101985.63;5104846;28;20501;-75
2020/12/02 02:24:25;;;;;;;17.38;15.48;;;10.30;99.90;;;10.50;72.90;102022.13;5070941;28;20520;-74
2020/12/02 02:26:57;;;;;;;17.63;15.23;;;10.30;99.90;;;10.47;72.85;102022.09;5071947;28;20044;-75
2020/12/02 02:29:29;;;;;;;15.82;14.15;;;10.30;99.90;;;10.50;72.68;102027.41;5072009;28;20056;-74
2020/12/02 02:32:03;;;;;;;16.23;14.52;;;10.30;99.90;;;10.40;73.00;102007.00;5070903;28;20056;-75
2020/12/02 02:34:32;;;;;;;17.13;14.13;;;10.30;99.90;;;10.48;73.08;102022.13;5071866;28;20045;-74
2020/12/02 02:37:06;;;;;;;16.10;14.50;;;10.30;99.90;;;10.52;72.89;102012.47;5072157;28;20421;-75
2020/12/02 02:39:37;;;;;;;17.90;13.90;;;10.30;99.90;;;10.44;72.90;102012.34;5071798;28;20393;-75
2020/12/02 02:42:11;;;;;;;16.17;14.15;;;10.30;99.90;;;10.50;73.00;102019.50;5072173;28;20068;-75
2020/12/02 02:44:39;;;;;;;17.25;15.10;;;10.30;99.90;;;10.42;72.94;102002.59;5086114;28;20143;-75
2020/12/02 02:47:07;;;;;;;17.50;14.82;;;10.30;99.90;;;10.43;72.86;101991.19;5071919;28;20037;-75
2020/12/02 02:49:35;;;;;;;17.02;13.70;;;10.30;99.90;;;10.51;72.94;102005.41;5071981;28;20121;-74
2020/12/02 02:52:02;;;;;;;17.35;15.55;;;10.30;99.90;;;10.51;72.82;102002.75;5071686;28;20072;-75
2020/12/02 02:54:32;;;;;;;18.55;15.27;;;10.30;99.90;;;10.57;72.92;101997.53;5072242;28;20094;-75
2020/12/02 02:56:59;;;;;;;18.23;14.75;;;10.40;99.90;;;10.55;72.74;101994.88;5070586;28;20102;-75
2020/12/02 02:59:30;;;;;;;15.77;14.05;;;10.40;99.90;;;10.38;73.28;101984.91;5070585;28;20048;-75
2020/12/02 03:02:00;;;;;;;16.92;14.18;;;10.40;99.90;;;10.49;73.19;101996.56;5071973;28;20059;-75
2020/12/02 03:04:27;;;;;;;16.23;14.40;;;10.40;99.90;;;8.06;73.09;101618.63;5071814;28;20379;-74
2020/12/02 03:06:54;;;;;;;15.48;13.23;;;10.30;99.90;;;10.48;73.45;101989.47;5071870;28;20051;-75
2020/12/02 03:09:22;;;;;;;15.70;14.02;;;10.30;99.90;;;10.39;73.51;101986.72;5071824;28;20152;-74
2020/12/02 03:11:55;;;;;;;17.13;14.15;;;10.30;99.90;;;10.17;73.60;101952.88;5074117;28;20048;-74
2020/12/02 03:14:23;;;;;;;15.90;14.13;;;10.30;99.90;;;10.44;73.37;101985.91;5075518;28;20060;-74
2020/12/02 03:16:54;;;;;;;17.90;13.45;;;10.30;99.90;;;10.11;73.93;101950.16;5075722;28;20060;-75
2020/12/02 03:19:23;;;;;;;;;;;10.20;99.90;;;10.31;74.07;101989.25;5074614;28;20045;-75
2020/12/02 03:21:56;;;;;;;16.33;14.47;;;10.20;99.90;;;10.15;73.98;101965.19;5073942;28;19927;-75
2020/12/02 03:24:26;;;;;;;16.58;13.75;;;10.20;99.90;;;10.34;74.22;101988.38;5075189;28;20048;-74
2020/12/02 03:26:59;;;;;;;16.45;13.85;;;10.20;99.90;;;10.30;74.39;101990.09;5075395;28;20051;-74
2020/12/02 03:29:27;;;;;;;15.93;14.23;;;10.20;99.90;;;9.44;74.23;101835.50;5075470;28;20071;-75
2020/12/02 03:31:55;;;;;;;17.38;14.48;;;10.20;99.90;;;10.08;74.32;101973.88;5075255;28;20049;-75
2020/12/02 03:34:22;;;;;;;17.88;14.38;;;10.10;99.90;;;9.71;75.64;101975.03;5074994;28;20040;-75
2020/12/02 03:36:54;;;;;;;16.95;14.40;;;9.80;99.90;;;8.59;78.25;101914.88;5074743;28;20045;-74
2020/12/02 03:39:22;;;;;;;18.38;15.43;;;9.10;99.90;;;7.84;81.11;101898.25;5073777;28;20040;-74
2020/12/02 03:41:49;;;;;;;18.63;16.40;;;8.40;99.90;;;8.47;81.62;101964.72;5074721;28;20064;-74
2020/12/02 03:44:18;;;;;;;20.50;16.15;;;8.40;99.90;;;8.37;81.99;101961.81;5074865;28;20036;-75
2020/12/02 03:46:46;;;;;;;21.83;17.23;;;8.30;99.90;;;8.39;82.91;101955.75;5074958;28;20278;-74
2020/12/02 03:49:16;;;;;;;20.98;15.80;;;8.30;99.90;;;8.61;82.21;101938.63;5074640;28;20064;-75
2020/12/02 03:51:44;;;;;;;18.50;16.20;;;8.50;99.90;;;8.69;81.56;101953.75;5074683;28;20397;-75
2020/12/02 03:54:11;;;;;;;18.63;14.98;;;8.60;99.90;;;8.72;82.04;101952.94;5074565;28;20070;-74
2020/12/02 03:56:40;;;;;;;20.55;16.38;;;8.60;99.90;;;8.87;81.62;101951.47;5074812;28;20405;-75
2020/12/02 03:59:07;;;;;;;19.40;15.70;;;8.70;99.90;;;8.98;81.09;101944.66;5074433;28;20040;-74
2020/12/02 04:01:35;;;;;;;24.95;17.23;;;8.90;99.90;;;8.71;81.81;101948.53;5073110;28;20132;-75
2020/12/02 04:04:02;;;;;;;22.05;16.80;;;8.70;99.90;;;8.81;81.81;101940.81;5074389;28;20060;-74
2020/12/02 04:06:30;;;;;;;20.08;16.25;;;8.80;99.90;;;9.01;81.73;101939.47;5074367;28;20041;-74
2020/12/02 04:08:58;;;;;;;21.02;16.95;;;8.90;99.90;;;9.17;81.10;101930.06;5074552;28;20036;-74
2020/12/02 04:11:25;;;;;;;20.17;17.50;;;9.10;99.90;;;9.14;80.14;101915.94;5074183;28;20037;-74
2020/12/02 04:13:53;;;;;;;19.83;16.50;;;9.10;99.90;;;9.44;80.08;101948.16;5074215;28;20437;-74
2020/12/02 04:16:20;;;;;;;21.33;17.30;;;9.30;99.90;;;9.41;79.80;101926.94;5074184;28;20033;-74
2020/12/02 04:18:47;;;;;;;18.02;15.57;;;9.40;99.90;;;9.53;79.06;101945.66;5074033;28;20163;-74
2020/12/02 04:21:23;;;;;;;21.77;17.10;;;9.40;99.90;;;8.85;78.62;101804.56;5073316;28;20059;-74
2020/12/02 04:23:52;;;;;;;20.38;16.30;;;9.50;99.90;;;9.56;78.68;101914.03;5074556;28;20052;-75
2020/12/02 04:26:19;;;;;;;24.42;16.38;;;9.60;99.90;;;9.71;78.25;101931.03;5073973;28;20094;-75
2020/12/02 04:28:47;;;;;;;18.77;16.65;;;9.60;99.90;;;9.81;78.15;101938.19;5073867;28;20048;-74
2020/12/02 04:31:15;;;;;;;20.95;16.98;;;9.70;99.90;;;9.82;78.16;101945.28;5072819;28;20090;-74
2020/12/02 04:33:42;;;;;;;18.60;15.60;;;9.70;99.90;;;9.85;77.60;101936.53;5074005;28;20139;-74
2020/12/02 04:36:10;;;;;;;21.00;16.27;;;9.70;99.90;;;9.77;77.49;101912.63;5073649;28;20090;-74
2020/12/02 04:38:38;;;;;;;21.38;16.40;;;9.80;99.90;;;9.76;77.42;101929.31;5073848;28;20165;-74
2020/12/02 04:41:11;;;;;;;22.98;16.83;;;9.80;99.90;;;9.94;77.25;101945.47;5073731;28;20040;-74
2020/12/02 04:43:41;;;;;;;19.23;15.93;;;9.80;99.90;;;9.76;77.22;101902.91;5073669;28;20049;-75
2020/12/02 04:46:14;;;;;;;20.73;16.15;;;9.80;99.90;;;10.06;77.26;101938.59;5073510;28;20555;-74
2020/12/02 04:48:47;;;;;;;17.08;15.27;;;9.90;99.90;;;9.85;76.98;101894.25;5073609;28;20045;-74
2020/12/02 04:51:19;;;;;;;18.25;15.07;;;9.90;99.90;;;10.07;76.91;101940.34;5073485;28;20494;-74
2020/12/02 04:53:51;;;;;;;22.75;15.45;;;9.90;99.90;;;10.13;76.68;101936.09;5073470;28;20044;-74
2020/12/02 04:56:20;;;;;;;19.83;16.83;;;10.00;99.90;;;10.16;76.30;101948.47;5073660;28;20048;-75
2020/12/02 04:58:49;;;;;;;17.40;14.98;;;10.00;99.90;;;9.88;76.22;101891.63;5073196;28;20115;-75
2020/12/02 05:01:21;;;;;;;19.92;17.10;;;10.00;99.90;;;10.06;76.05;101922.72;5073220;28;20501;-75
2020/12/02 05:03:58;;;;;;;21.52;15.45;;;10.00;99.90;;;9.97;76.16;101897.94;5073565;28;20561;-74
2020/12/02 05:06:32;;;;;;;19.98;15.80;;;10.00;99.90;;;10.24;76.08;101934.47;5073285;28;20044;-74
2020/12/02 05:09:25;;;;;;;18.95;15.07;;;10.10;99.90;;;10.31;75.80;101935.47;5088955;28;20075;-78
2020/12/02 05:12:00;;;;;;;19.92;15.95;;;10.10;99.90;;;9.67;75.63;101828.81;5063536;28;20080;-73
2020/12/02 05:14:35;;;;;;;20.45;15.18;;;10.10;99.90;;;9.89;76.16;101910.16;5073074;28;20124;-75
2020/12/02 05:17:17;;;;;;;17.98;16.00;;;9.90;99.90;;;9.74;76.50;101877.31;5073064;28;20379;-77
2020/12/02 05:19:47;;;;;;;18.83;15.52;;;9.80;99.90;;;10.08;76.56;101924.53;5071875;28;20059;-74
2020/12/02 05:22:17;;;;;;;21.23;15.75;;;9.90;99.90;;;10.15;76.29;101925.53;5071783;28;20127;-68
2020/12/02 05:24:49;;;;;;;21.20;16.73;;;10.00;99.90;;;9.91;76.32;101886.41;5071740;28;20047;-70
2020/12/02 05:27:21;;;;;;;21.30;15.95;;;10.00;99.90;;;9.43;76.37;101796.75;5072903;28;20044;-71
2020/12/02 05:29:56;;;;;;;21.83;16.00;;;10.00;99.90;;;9.92;76.51;101889.06;5072761;28;20044;-72
2020/12/02 05:32:28;;;;;;;19.05;17.02;;;10.00;99.90;;;9.75;76.63;101887.94;5072577;28;20040;-71
2020/12/02 05:34:56;;;;;;;21.17;17.02;;;9.80;99.90;;;9.70;77.08;101880.78;5072255;28;20044;-72
2020/12/02 05:37:38;;;;;;;23.58;17.77;;;9.80;99.90;;;9.96;76.92;101912.03;5072596;28;20119;-71
2020/12/02 05:40:10;;;;;;;21.80;16.30;;;9.80;99.90;;;9.76;77.11;101908.19;5072748;28;20056;-72
2020/12/02 05:42:42;;;;;;;22.15;17.67;;;9.80;99.90;;;7.86;77.00;101583.13;5073126;28;20049;-78
2020/12/02 05:45:15;;;;;;;21.85;17.85;;;9.70;99.90;;;9.71;77.35;101880.81;5072833;28;20091;-74
2020/12/02 05:47:43;;;;;;;22.90;18.65;;;9.70;99.90;;;9.41;78.16;101876.78;5072491;28;20520;-74
2020/12/02 05:50:14;;;;;;;24.58;18.13;;;9.50;99.90;;;9.44;78.57;101877.75;5072349;28;20059;-72
2020/12/02 05:52:46;;;;;;;22.50;17.73;;;9.40;99.90;;;9.57;78.59;101878.81;5072383;28;20044;-73
2020/12/02 05:55:21;;;;;;;25.00;18.85;;;9.50;99.90;;;9.22;79.52;101899.34;5071347;28;20079;-73
2020/12/02 05:57:57;;;;;;;24.63;18.55;;;9.20;99.90;;;8.98;79.69;101860.22;5072945;28;20378;-74
2020/12/02 06:00:27;;;;;;;24.77;17.95;;;9.10;99.90;;;9.21;79.64;101889.69;5072531;28;20371;-73
2020/12/02 06:02:56;;;;;;;23.83;19.08;;;9.20;99.90;;;9.28;79.56;101894.19;5072240;28;20389;-73
2020/12/02 06:05:25;;;;;;;25.60;18.25;;;9.20;99.90;;;8.87;80.09;101882.00;5087935;28;20428;-73
2020/12/02 06:07:57;;;;;;;25.08;19.60;;;9.10;99.90;;;8.84;81.19;101858.22;5071135;28;20041;-73
2020/12/02 06:10:35;;;;;;;27.25;19.67;;;8.90;99.90;;;9.29;80.24;101889.81;5072418;28;20045;-73
2020/12/02 06:13:04;;;;;;;25.33;20.00;;;9.10;99.90;;;9.11;79.89;101834.94;5071109;28;20063;-74
2020/12/02 06:15:38;;;;;;;25.88;19.52;;;9.30;99.90;;;9.35;80.00;101888.13;5072439;28;20540;-73
2020/12/02 06:18:22;;;;;;;23.25;17.80;;;9.20;99.90;;;9.00;80.52;101836.53;5072011;28;20048;-73
2020/12/02 06:20:51;;;;;;;26.10;19.50;;;9.20;99.90;;;9.34;80.26;101891.66;5070585;28;20140;-73
2020/12/02 06:23:18;;;;;;;24.85;20.13;;;9.20;99.90;;;9.50;79.59;101898.97;5072022;28;20075;-73
2020/12/02 06:25:53;;;;;;;25.05;18.40;;;9.40;99.90;;;9.59;79.58;101895.56;5072224;28;20075;-73
2020/12/02 06:28:49;;;;;;;27.20;19.17;;;9.40;99.90;;;9.69;78.83;101889.59;5071043;28;20059;-74
2020/12/02 06:31:27;;;;;;;26.23;18.70;;;9.50;99.90;;;9.56;78.32;101856.78;5072272;28;20116;-73
2020/12/02 06:33:57;;;;;;;23.13;18.58;;;9.60;99.90;;;9.79;78.52;101892.38;5072018;28;20090;-73
2020/12/02 06:36:28;;;;;;;26.58;19.33;;;9.70;99.90;;;9.68;78.25;101877.22;5072147;28;20087;-73
2020/12/02 06:39:23;;;;;;;27.73;19.30;;;9.70;99.90;;;9.66;78.36;101877.22;5072345;28;20094;-73
2020/12/02 06:41:51;;;;;;;24.08;19.60;;;9.60;99.90;;;9.22;78.79;101874.69;5087358;28;20053;-73
2020/12/02 06:45:03;;;;;;;25.45;19.60;;;9.40;99.90;;;8.11;82.67;101877.78;5071980;28;20450;-73
2020/12/02 06:47:32;;;;;;;27.20;20.23;;;8.40;99.90;;;8.03;84.40;101870.59;5075874;28;20846;-73
2020/12/02 06:50:11;;;;;;;33.33;22.33;;;8.10;99.90;;;7.52;86.48;101856.22;5076069;28;20056;-73
2020/12/02 06:52:40;;;;;;;33.97;22.50;;;7.60;99.90;;;7.30;88.21;101855.69;5075773;28;20051;-73
2020/12/02 06:55:22;;;;;;;31.17;22.25;;;7.30;99.90;;;7.21;88.96;101852.84;5075923;28;20041;-73
2020/12/02 06:57:57;;;;;;;32.45;23.52;;;7.20;99.90;;;7.20;89.31;101844.94;5075782;28;20047;-74
2020/12/02 07:00:29;;;;;;;29.67;22.83;;;7.20;99.90;;;7.63;88.95;101860.88;5075930;28;20097;-73
2020/12/02 07:03:00;;;;;;;32.75;24.00;;;7.40;99.90;;;8.00;88.08;101849.41;5075837;28;20048;-73
2020/12/02 07:05:36;;;;;;;33.25;23.27;;;7.70;99.90;;;8.15;87.02;101862.91;5075854;28;20056;-73
2020/12/02 07:08:16;;;;;;;31.80;22.90;;;8.00;99.90;;;8.45;86.35;101855.69;5074618;28;20493;-73
2020/12/02 07:11:06;;;;;;;31.50;22.20;;;8.30;99.90;;;8.69;84.92;101865.84;5076006;28;20098;-73
2020/12/02 07:13:38;;;;;;;31.73;23.60;;;8.50;99.90;;;8.85;84.21;101863.50;5075155;28;20052;-73
2020/12/02 07:16:16;;;;;;;28.23;22.05;;;8.70;99.90;;;9.00;83.51;101869.06;5075321;28;20045;-73
2020/12/02 07:18:46;;;;;;;30.83;22.17;;;8.80;99.90;;;9.13;82.92;101867.53;5075254;28;20041;-73
2020/12/02 07:21:26;;;;;;;30.20;21.42;;;9.00;99.90;;;8.89;82.23;101862.69;5075618;28;20056;-73
2020/12/02 07:23:55;;;;;;;32.05;22.55;;;8.90;99.90;;;8.56;83.06;101869.97;5075257;28;20116;-73
2020/12/02 07:26:22;;;;;;;31.50;21.67;;;8.50;99.90;;;8.96;82.85;101876.91;5074897;28;20097;-73
2020/12/02 07:28:58;;;;;;;31.33;21.67;;;8.80;99.90;;;9.02;81.94;101845.31;5075301;28;20036;-73
2020/12/02 07:31:28;;;;;;;32.17;21.95;;;9.00;99.90;;;9.22;81.80;101869.41;5074021;28;20049;-73
2020/12/02 07:34:04;;;;;;;28.98;21.23;;;9.10;99.90;;;8.70;82.61;101863.22;5075030;28;20184;-73
2020/12/02 07:36:35;;;;;;;29.83;22.48;;;8.70;99.90;;;8.80;82.25;101865.19;5074945;28;20631;-74
2020/12/02 07:39:12;;;;;;;28.80;21.10;;;8.70;99.90;;;9.04;82.09;101870.88;5090616;28;20419;-73
2020/12/02 07:41:51;;;;;;;31.30;22.17;;;8.90;99.90;;;9.08;81.87;101840.16;5075339;28;20054;-73
2020/12/02 07:44:20;;;;;;;35.25;23.00;;;9.00;99.90;;;9.35;81.17;101864.38;5075071;28;20064;-73
2020/12/02 07:46:49;;;;;;;30.17;21.65;;;9.20;99.90;;;9.47;80.72;101861.03;5074934;28;20075;-73
2020/12/02 07:49:17;;;;;;;31.75;21.70;;;9.30;99.90;;;9.27;80.08;101815.84;5074599;28;20099;-73
2020/12/02 07:51:51;;;;;;;31.27;21.55;;;9.40;99.90;;;9.37;79.86;101852.09;5073626;28;20135;-73
2020/12/02 07:54:24;;;;;;;30.83;22.17;;;9.30;99.90;;;9.36;80.25;101849.44;5074904;28;20456;-73
2020/12/02 07:56:53;;;;;;;28.30;20.70;;;9.30;99.90;;;8.90;80.11;101818.75;5073553;28;20048;-73
2020/12/02 07:59:26;;;;;;;32.42;22.00;;;9.10;99.90;;;8.80;81.08;101840.53;5074578;28;20075;-73
2020/12/02 08:02:10;;;;;;;31.70;23.42;;;8.90;99.90;;;8.52;82.15;101843.50;5073259;28;20067;-73
2020/12/02 08:04:51;;;;;;;33.53;22.45;;;8.60;99.90;;;8.46;83.08;101838.13;5074310;28;20383;-73
2020/12/02 08:07:20;;;;;;;35.05;22.92;;;8.40;99.90;;;7.93;84.95;101832.63;5089950;28;20418;-73
2020/12/02 08:09:52;;;;;;;36.35;24.15;;;7.90;99.90;;;7.98;84.96;101830.06;5072998;28;20148;-73
2020/12/02 08:12:28;;;;;;;33.13;24.13;;;7.90;99.90;;;7.92;86.15;101833.47;5074622;28;20044;-73
2020/12/02 08:15:04;;;;;;;36.92;24.92;;;7.80;99.90;;;7.98;85.87;101820.41;5072922;28;20398;-73
2020/12/02 08:17:33;;;;;;;36.78;24.75;;;7.90;99.90;;;8.20;85.07;101833.19;5089647;28;20052;-73
2020/12/02 08:20:20;;;;;;;36.63;23.98;;;8.00;99.90;;;8.36;85.07;101804.53;5074189;28;20072;-73
2020/12/02 08:22:52;;;;;;;35.63;24.45;;;8.30;99.90;;;8.60;84.26;101813.78;5074219;28;20125;-73
2020/12/02 08:25:25;;;;;;;34.50;23.90;;;8.50;99.90;;;8.80;83.20;101808.88;5089773;28;20464;-73
2020/12/02 08:27:59;;;;;;;35.40;23.60;;;8.80;99.90;;;9.02;82.91;101834.78;5089746;28;20748;-73
2020/12/02 08:30:30;;;;;;;36.58;25.92;;;8.90;99.90;;;8.97;82.40;101826.78;5073831;28;20058;-73
2020/12/02 08:33:01;;;;;;;37.17;24.30;;;8.90;99.90;;;8.39;83.46;101831.84;5074088;28;20127;-73
2020/12/02 08:35:34;;;;;;;34.78;23.98;;;8.50;99.90;;;8.29;83.75;101800.88;5072763;28;20513;-73
2020/12/02 08:38:02;;;;;;;34.65;24.27;;;8.40;99.90;;;8.34;84.02;101827.34;5073732;28;20094;-73
2020/12/02 08:40:42;;;;;;;37.60;24.80;;;8.20;99.90;;;8.46;84.89;101815.28;5073721;28;20040;-73
2020/12/02 08:43:32;;;;;;;36.80;25.58;;;8.30;99.90;;;8.74;83.86;101807.03;5073971;28;20046;-73
2020/12/02 08:46:20;;;;;;;35.58;24.02;;;8.60;99.90;;;9.05;82.95;101824.28;5073905;28;20048;-73
2020/12/02 08:48:51;;;;;;;34.22;24.30;;;8.80;99.90;;;8.93;82.88;101819.69;5073557;28;20063;-73
2020/12/02 08:51:22;;;;;;;34.97;23.73;;;8.90;99.90;;;8.51;83.39;101815.38;5073774;28;20032;-73
2020/12/02 08:53:50;;;;;;;;;;;8.50;99.90;;;8.05;84.66;101813.53;5073910;28;20041;-73
2020/12/02 08:56:32;;;;;;;31.27;23.38;;;8.10;99.90;;;7.67;86.06;101777.56;5073011;28;19920;-69
2020/12/02 08:59:00;;;;;;;35.65;23.58;;;7.80;99.90;;;7.75;86.41;101768.09;5073232;28;20509;-74
2020/12/02 09:01:28;;;;;;;35.22;24.35;;;7.80;99.90;;;7.84;86.62;101799.94;5073536;28;20080;-74
2020/12/02 09:03:56;;;;;;;35.75;25.48;;;7.70;99.90;;;8.08;86.85;101805.69;5073068;28;20048;-71
2020/12/02 09:06:24;;;;;;;106.70;60.83;;;7.80;99.90;;;8.23;86.48;101798.97;5073514;28;20094;-75
2020/12/02 09:08:52;;;;;;;34.78;24.70;;;8.00;99.90;;;7.45;85.61;101649.91;5073031;28;20370;-68
2020/12/02 09:11:30;;;;;;;35.90;24.55;;;8.10;99.90;;;8.13;86.04;101769.78;5072754;28;20106;-69
2020/12/02 09:13:59;;;;;;;40.55;26.77;;;8.20;99.90;;;8.64;85.39;101830.56;5072781;28;20052;-68
2020/12/02 09:16:30;;;;;;;36.17;24.17;;;8.50;99.90;;;8.84;84.80;101805.44;5071680;28;20052;-69
2020/12/02 09:18:58;;;;;;;33.83;24.48;;;8.70;99.90;;;8.87;84.66;101790.56;5072813;28;20056;-69
2020/12/02 09:21:27;;;;;;;39.63;26.15;;;8.90;99.90;;;8.57;84.51;101797.03;5072722;28;20406;-69
2020/12/02 09:23:55;;;;;;;34.40;24.83;;;8.60;99.90;;;8.17;84.65;101740.88;5072964;28;20052;-69
2020/12/02 09:26:27;;;;;;;34.70;24.02;;;8.40;99.90;;;8.74;84.27;101791.22;5072850;28;20044;-69
2020/12/02 09:28:57;;;;;;;33.55;24.45;;;8.60;99.90;;;8.69;84.32;101803.41;5072664;28;20055;-69
2020/12/02 09:31:28;;;;;;;33.77;23.90;;;8.50;99.90;;;8.90;83.85;101795.00;5073131;28;20403;-69
2020/12/02 09:33:56;;;;;;;38.67;24.52;;;8.60;99.90;;;8.90;82.84;101787.94;5072583;28;20366;-70
2020/12/02 09:36:25;;;;;;;31.52;23.08;;;8.80;99.90;;;9.13;82.66;101796.28;5072225;28;20047;-69
2020/12/02 09:38:54;;;;;;;34.67;23.70;;;8.90;99.90;;;9.13;81.97;101775.16;5073054;28;20124;-69
2020/12/02 09:41:35;;;;;;;33.88;23.15;;;9.00;99.90;;;9.28;81.75;101787.69;5072271;28;20093;-69
2020/12/02 09:44:19;;;;;;;;;;;9.00;99.90;;;6.85;81.13;101354.97;5073203;28;20093;-69
2020/12/02 09:46:54;;;;;;;33.67;23.73;;;9.00;99.90;;;8.95;81.58;101761.66;5072324;28;20377;-69
2020/12/02 09:49:22;;;;;;;31.25;22.40;;;8.90;99.90;;;9.05;82.27;101787.34;5072298;28;20045;-69
2020/12/02 09:52:01;;;;;;;32.15;22.23;;;8.80;99.90;;;9.14;82.35;101766.38;5072274;28;20139;-69
2020/12/02 09:54:29;;;;;;;35.50;23.52;;;8.90;99.90;;;9.29;81.77;101777.16;5071233;28;20044;-69
2020/12/02 09:56:57;;;;;;;30.50;22.92;;;9.00;99.90;;;9.26;81.73;101750.72;5072181;28;20107;-70
2020/12/02 09:59:25;;;;;;;35.65;24.17;;;9.20;99.90;;;9.49;81.14;101769.53;5072279;28;20381;-69
2020/12/02 10:02:07;;;;;;;31.48;21.90;;;9.30;99.90;;;9.12;81.59;101804.19;5071396;28;20054;-70
2020/12/02 10:04:57;;;;;;;32.53;23.55;;;9.10;99.90;;;9.11;82.23;101750.50;5070959;28;20123;-70
2020/12/02 10:07:39;;;;;;;34.78;23.52;;;8.90;99.90;;;8.65;82.57;101730.38;5069406;28;20040;-70
2020/12/02 10:10:25;;;;;;;144.77;86.15;;;8.70;99.90;;;8.42;83.13;101646.50;5070049;28;20094;-82
2020/12/02 10:13:26;;;;;;;143.45;75.10;;;8.90;99.90;;;9.01;83.22;101753.84;5072400;28;20049;-70
2020/12/02 10:16:06;;;;;;;37.75;25.48;;;8.80;99.90;;;9.18;83.01;101754.09;5071764;28;20059;-70
2020/12/02 10:19:07;;;;;;;37.97;24.88;;;8.80;99.90;;;9.12;82.26;101746.13;5071982;28;20044;-69
2020/12/02 10:22:17;;;;;;;39.22;25.17;;;8.90;99.90;;;9.24;81.97;101730.44;5071683;28;20056;-69
2020/12/02 10:25:12;;;;;;;38.90;24.98;;;9.00;99.90;;;8.78;81.89;101698.09;5075639;28;20052;-71
2020/12/02 10:28:18;;;;;;;41.50;25.70;;;8.80;99.90;;;8.60;84.17;101713.59;5043810;28;20060;-69
2020/12/02 10:30:59;;;;;;;45.22;29.52;;;8.50;99.90;;;8.43;85.24;101711.53;5071868;28;20044;-68
2020/12/02 10:33:52;;;;;;;44.88;28.05;;;8.30;99.90;;;8.20;85.78;101683.00;5071978;28;20040;-69